createdAt,value
2018-03-14T00:02:22.262Z,10.04
2018-03-14T00:04:49.846Z,10.02
2018-03-14T00:07:17.606Z,10.06
2018-03-14T00:09:45.405Z,10.01
2018-03-14T00:12:13.037Z,10.02
2018-03-14T00:14:40.625Z,10.06
2018-03-14T00:17:08.198Z,10.14
2018-03-14T00:19:35.798Z,10.16
2018-03-14T00:22:03.587Z,10.18
2018-03-14T00:24:31.192Z,10.18
2018-03-14T00:26:58.767Z,10.15
2018-03-14T00:29:26.361Z,10.08
2018-03-14T00:31:54.186Z,10.08
2018-03-14T00:34:21.944Z,10.05
2018-03-14T00:36:49.527Z,9.99
2018-03-14T00:39:17.110Z,9.95
2018-03-14T00:41:44.961Z,9.91
2018-03-14T00:44:12.777Z,9.91
2018-03-14T00:46:40.369Z,9.89
2018-03-14T00:49:07.966Z,9.82
2018-03-14T00:51:35.623Z,9.77
2018-03-14T00:54:03.214Z,9.68
2018-03-14T00:56:31.041Z,9.57
2018-03-14T00:58:58.658Z,9.48
2018-03-14T01:01:26.272Z,9.38
2018-03-14T01:03:53.908Z,9.38
2018-03-14T01:06:21.510Z,9.32
2018-03-14T01:08:49.108Z,9.30
2018-03-14T01:11:16.875Z,9.25
2018-03-14T01:13:44.468Z,9.16
2018-03-14T01:16:12.063Z,9.05
2018-03-14T01:18:39.931Z,8.99
2018-03-14T01:21:07.640Z,9.02
2018-03-14T01:23:35.229Z,8.98
2018-03-14T01:26:02.825Z,8.96
2018-03-14T01:28:30.580Z,8.92
2018-03-14T01:30:58.171Z,8.90
2018-03-14T01:33:25.774Z,8.92
2018-03-14T01:35:53.633Z,8.90
2018-03-14T01:38:21.218Z,8.91
2018-03-14T01:40:48.993Z,8.93
2018-03-14T01:43:16.590Z,8.86
2018-03-14T01:45:44.179Z,8.84
2018-03-14T01:48:11.779Z,8.79
2018-03-14T01:50:39.564Z,8.79
2018-03-14T01:53:19.229Z,8.81
2018-03-14T01:55:46.813Z,8.78
2018-03-14T01:58:14.451Z,8.79
2018-03-14T02:00:42.043Z,8.81
2018-03-14T02:03:09.619Z,8.79
2018-03-14T02:05:37.210Z,8.81
2018-03-14T02:08:05.039Z,8.75
2018-03-14T02:10:32.744Z,8.67
2018-03-14T02:13:00.316Z,8.70
2018-03-14T02:15:27.950Z,8.69
2018-03-14T02:17:55.546Z,8.66
2018-03-14T02:20:23.323Z,8.63
2018-03-14T02:22:51.140Z,8.63
2018-03-14T02:25:18.718Z,8.61
2018-03-14T02:27:46.476Z,8.61
2018-03-14T02:30:14.195Z,8.57
2018-03-14T02:32:41.804Z,8.60
2018-03-14T02:35:09.533Z,8.55
2018-03-14T02:37:37.142Z,8.53
2018-03-14T02:40:04.746Z,8.55
2018-03-14T02:42:32.586Z,8.51
2018-03-14T02:45:00.155Z,8.62
2018-03-14T02:47:27.701Z,8.61
2018-03-14T02:49:55.421Z,8.59
2018-03-14T02:52:23.008Z,8.57
2018-03-14T02:54:50.775Z,8.61
2018-03-14T02:57:18.494Z,8.58
2018-03-14T02:59:46.313Z,8.59
2018-03-14T03:02:13.871Z,8.55
2018-03-14T03:04:41.430Z,8.56
2018-03-14T03:07:08.986Z,8.59
2018-03-14T03:09:36.695Z,8.72
2018-03-14T03:12:04.259Z,8.77
2018-03-14T03:14:31.806Z,8.87
2018-03-14T03:16:59.532Z,8.90
2018-03-14T03:19:27.256Z,8.91
2018-03-14T03:21:54.806Z,8.93
2018-03-14T03:24:22.362Z,8.95
2018-03-14T03:26:49.910Z,8.94
2018-03-14T03:29:17.730Z,8.93
2018-03-14T03:31:45.278Z,8.92
2018-03-14T03:34:13.063Z,8.92
2018-03-14T03:36:40.622Z,8.87
2018-03-14T03:39:08.350Z,8.79
2018-03-14T03:41:35.907Z,8.72
2018-03-14T03:44:03.635Z,8.63
2018-03-14T03:46:31.204Z,8.53
2018-03-14T03:48:58.760Z,8.47
2018-03-14T03:51:26.589Z,8.46
2018-03-14T03:53:54.139Z,8.49
2018-03-14T03:56:21.929Z,8.66
2018-03-14T03:58:49.743Z,8.83
2018-03-14T04:01:17.297Z,8.93
2018-03-14T04:03:44.867Z,9.04
2018-03-14T04:06:12.597Z,9.14
2018-03-14T04:08:40.162Z,9.19
2018-03-14T04:11:07.724Z,9.20
2018-03-14T04:13:35.552Z,9.24
2018-03-14T04:16:03.146Z,9.26
2018-03-14T04:18:30.707Z,9.22
2018-03-14T04:20:58.506Z,9.18
2018-03-14T04:23:26.062Z,9.14
2018-03-14T04:25:53.841Z,9.08
2018-03-14T04:28:21.560Z,9.03
2018-03-14T04:30:49.186Z,9.01
2018-03-14T04:33:16.753Z,8.96
2018-03-14T04:35:44.615Z,8.98
2018-03-14T04:38:12.171Z,8.97
2018-03-14T04:40:39.726Z,9.03
2018-03-14T04:43:07.322Z,9.07
2018-03-14T04:45:34.935Z,9.12
2018-03-14T04:48:02.550Z,9.12
2018-03-14T04:50:30.104Z,9.21
2018-03-14T04:52:57.939Z,9.26
2018-03-14T04:55:25.504Z,9.36
2018-03-14T04:57:53.276Z,9.35
2018-03-14T05:00:21.094Z,9.38
2018-03-14T05:02:48.703Z,9.39
2018-03-14T05:05:16.265Z,9.43
2018-03-14T05:07:43.820Z,9.54
2018-03-14T05:10:11.426Z,9.65
2018-03-14T05:12:39.149Z,9.80
2018-03-14T05:15:06.699Z,9.94
2018-03-14T05:17:34.275Z,10.06
2018-03-14T05:20:01.830Z,10.27
2018-03-14T05:22:29.394Z,10.40
2018-03-14T05:24:57.172Z,10.56
2018-03-14T05:27:24.990Z,10.73
2018-03-14T05:29:52.543Z,11.16
2018-03-14T05:32:20.162Z,12.06
2018-03-14T05:34:47.714Z,12.96
2018-03-14T05:37:15.270Z,13.62
2018-03-14T05:39:42.842Z,14.68
2018-03-14T05:42:10.414Z,15.84
2018-03-14T05:44:38.188Z,16.72
2018-03-14T05:47:05.742Z,17.20
2018-03-14T05:49:33.557Z,17.60
2018-03-14T05:52:01.110Z,18.96
2018-03-14T05:54:28.889Z,19.69
2018-03-14T05:56:56.437Z,19.38
2018-03-14T05:59:23.996Z,19.52
2018-03-14T06:01:51.704Z,19.38
2018-03-14T06:04:19.254Z,19.22
2018-03-14T06:06:46.813Z,18.62
2018-03-14T06:09:14.381Z,18.19
2018-03-14T06:11:42.071Z,17.66
2018-03-14T06:14:09.793Z,16.98
2018-03-14T06:16:37.434Z,17.02
2018-03-14T06:19:04.994Z,17.32
2018-03-14T06:21:32.583Z,17.46
2018-03-14T06:24:00.153Z,17.64
2018-03-14T06:26:27.706Z,17.99
2018-03-14T06:28:55.438Z,18.60
2018-03-14T06:31:22.998Z,19.09
2018-03-14T06:33:50.642Z,19.53
2018-03-14T06:36:18.193Z,20.22
2018-03-14T06:38:45.794Z,20.43
2018-03-14T06:41:13.347Z,20.59
2018-03-14T06:43:40.960Z,21.07
2018-03-14T06:46:08.532Z,20.00
2018-03-14T06:48:36.086Z,19.76
2018-03-14T06:51:03.691Z,20.45
2018-03-14T06:53:31.382Z,21.03
2018-03-14T06:55:58.942Z,20.56
2018-03-14T06:58:38.203Z,20.32
2018-03-14T07:01:17.554Z,20.24
2018-03-14T07:06:50.913Z,19.07
2018-03-14T07:09:18.633Z,19.14
2018-03-14T07:11:46.458Z,19.64
2018-03-14T07:14:14.018Z,20.38
2018-03-14T07:16:41.594Z,20.35
2018-03-14T07:19:09.413Z,20.61
2018-03-14T07:21:37.122Z,21.43
2018-03-14T07:24:04.731Z,22.30
2018-03-14T07:26:32.348Z,22.33
2018-03-14T07:28:59.918Z,20.77
2018-03-14T07:31:27.475Z,20.67
2018-03-14T07:33:55.038Z,19.96
2018-03-14T07:36:22.842Z,19.83
2018-03-14T07:38:50.657Z,19.73
2018-03-14T07:41:18.475Z,19.19
2018-03-14T07:43:46.134Z,19.11
2018-03-14T07:46:13.912Z,19.55
2018-03-14T07:48:41.481Z,19.67
2018-03-14T07:51:09.055Z,19.84
2018-03-14T07:53:36.656Z,20.50
2018-03-14T07:56:04.258Z,21.48
2018-03-14T07:58:31.828Z,21.50
2018-03-14T08:00:59.536Z,20.24
2018-03-14T08:03:27.093Z,19.71
2018-03-14T08:05:54.767Z,19.43
2018-03-14T08:08:22.577Z,18.37
2018-03-14T08:10:50.130Z,18.68
2018-03-14T08:13:17.910Z,19.33
2018-03-14T08:15:45.592Z,20.23
2018-03-14T08:18:13.174Z,20.20
2018-03-14T08:20:40.729Z,20.28
2018-03-14T08:23:08.476Z,20.14
2018-03-14T08:25:36.199Z,20.17
2018-03-14T08:28:03.831Z,20.19
2018-03-14T08:30:31.638Z,21.09
2018-03-14T08:32:59.356Z,21.92
2018-03-14T08:35:26.936Z,21.69
2018-03-14T08:37:54.572Z,21.05
2018-03-14T08:40:22.285Z,20.59
2018-03-14T08:42:49.875Z,20.96
2018-03-14T08:45:17.750Z,21.09
2018-03-14T08:47:45.314Z,21.50
2018-03-14T08:50:13.081Z,22.13
2018-03-14T08:52:40.661Z,21.70
2018-03-14T08:55:08.226Z,21.60
2018-03-14T08:57:35.934Z,20.97
2018-03-14T09:00:03.569Z,20.05
2018-03-14T09:02:31.149Z,19.21
2018-03-14T09:04:58.718Z,19.00
2018-03-14T09:07:26.358Z,18.82
2018-03-14T09:09:54.123Z,18.67
2018-03-14T09:12:21.854Z,18.60
2018-03-14T09:14:49.414Z,18.85
2018-03-14T09:17:16.970Z,19.76
2018-03-14T09:19:44.797Z,19.40
2018-03-14T09:22:12.367Z,19.76
2018-03-14T09:24:40.076Z,19.54
2018-03-14T09:27:07.852Z,18.65
2018-03-14T09:29:35.697Z,17.85
2018-03-14T09:32:03.270Z,18.08
2018-03-14T09:34:31.001Z,19.36
2018-03-14T09:36:58.825Z,18.87
2018-03-14T09:39:26.382Z,19.20
2018-03-14T09:41:53.946Z,19.92
2018-03-14T09:44:21.569Z,19.77
2018-03-14T09:46:49.261Z,19.96
2018-03-14T09:49:16.834Z,20.11
2018-03-14T09:51:44.389Z,19.31
2018-03-14T09:54:12.079Z,18.88
2018-03-14T09:56:39.621Z,18.89
2018-03-14T09:59:07.194Z,18.41
2018-03-14T10:01:34.753Z,18.05
2018-03-14T10:04:02.314Z,17.64
2018-03-14T10:06:29.889Z,17.57
2018-03-14T10:08:57.510Z,17.53
2018-03-14T10:11:25.068Z,16.94
2018-03-14T10:13:52.683Z,16.53
2018-03-14T10:16:20.266Z,16.41
2018-03-14T10:18:47.929Z,16.38
2018-03-14T10:21:15.509Z,16.28
2018-03-14T10:23:43.071Z,16.44
2018-03-14T10:26:10.647Z,17.66
2018-03-14T10:28:38.215Z,18.84
2018-03-14T10:31:05.774Z,19.88
2018-03-14T10:33:33.338Z,20.68
2018-03-14T10:36:00.890Z,20.64
2018-03-14T10:38:28.669Z,19.83
2018-03-14T10:40:56.488Z,19.21
2018-03-14T10:43:24.053Z,18.75
2018-03-14T10:45:51.675Z,18.32
2018-03-14T10:48:19.442Z,18.13
2018-03-14T10:50:47.006Z,18.38
2018-03-14T10:53:14.782Z,18.33
2018-03-14T10:55:42.367Z,18.63
2018-03-14T10:58:10.215Z,19.81
2018-03-14T11:00:43.274Z,20.29
2018-03-14T11:03:16.407Z,19.68
2018-03-14T11:05:44.030Z,19.10
2018-03-14T11:08:11.610Z,18.74
2018-03-14T11:10:39.170Z,18.38
2018-03-14T11:13:06.737Z,18.03
2018-03-14T11:15:34.486Z,17.65
2018-03-14T11:18:02.215Z,17.42
2018-03-14T11:20:29.770Z,17.11
2018-03-14T11:22:57.341Z,17.01
2018-03-14T11:25:24.895Z,16.86
2018-03-14T11:27:52.768Z,16.92
2018-03-14T11:30:20.346Z,16.91
2018-03-14T11:32:47.914Z,17.20
2018-03-14T11:35:15.485Z,18.15
2018-03-14T11:37:43.207Z,19.34
2018-03-14T11:40:10.924Z,20.30
2018-03-14T11:42:38.706Z,19.86
2018-03-14T11:45:06.270Z,19.13
2018-03-14T11:47:33.903Z,18.98
2018-03-14T11:50:01.542Z,18.75
2018-03-14T11:52:29.100Z,18.28
2018-03-14T11:54:56.867Z,17.91
2018-03-14T11:57:24.685Z,17.98
2018-03-14T11:59:52.250Z,18.36
2018-03-14T12:02:19.814Z,18.33
2018-03-14T12:04:47.375Z,18.02
2018-03-14T12:07:15.158Z,17.70
2018-03-14T12:09:42.760Z,17.48
2018-03-14T12:12:10.370Z,17.72
2018-03-14T12:14:37.991Z,18.44
2018-03-14T12:17:05.829Z,19.41
2018-03-14T12:19:33.652Z,19.65
2018-03-14T12:22:01.468Z,19.21
2018-03-14T12:24:29.035Z,18.83
2018-03-14T12:26:56.804Z,18.21
2018-03-14T12:29:24.413Z,17.72
2018-03-14T12:31:52.099Z,17.67
2018-03-14T12:34:19.961Z,17.90
2018-03-14T12:36:47.676Z,18.10
2018-03-14T12:39:15.476Z,18.25
2018-03-14T12:41:43.213Z,18.16
2018-03-14T12:44:11.033Z,18.04
2018-03-14T12:46:38.851Z,17.77
2018-03-14T12:49:06.418Z,17.45
2018-03-14T12:51:34.037Z,17.26
2018-03-14T12:54:01.631Z,17.45
2018-03-14T12:56:29.198Z,18.52
2018-03-14T12:58:56.771Z,19.67
2018-03-14T13:01:24.358Z,20.04
2018-03-14T13:03:51.954Z,19.47
2018-03-14T13:06:19.584Z,18.68
2018-03-14T13:08:47.303Z,19.35
2018-03-14T13:11:14.867Z,20.23
2018-03-14T13:13:42.442Z,20.77
2018-03-14T13:16:10.018Z,20.97
2018-03-14T13:18:37.586Z,20.23
2018-03-14T13:21:05.402Z,19.59
2018-03-14T13:23:33.010Z,20.07
2018-03-14T13:26:00.585Z,20.22
2018-03-14T13:28:28.146Z,19.76
2018-03-14T13:30:55.873Z,19.52
2018-03-14T13:33:23.494Z,19.54
2018-03-14T13:35:51.309Z,19.20
2018-03-14T13:38:19.027Z,19.75
2018-03-14T13:40:46.596Z,20.76
2018-03-14T13:43:14.146Z,21.26
2018-03-14T13:45:41.728Z,21.11
2018-03-14T13:48:09.284Z,21.73
2018-03-14T13:50:36.863Z,22.41
2018-03-14T13:53:04.637Z,22.36
2018-03-14T13:55:32.264Z,21.70
2018-03-14T13:57:59.838Z,21.69
2018-03-14T14:00:27.394Z,21.80
2018-03-14T14:02:54.967Z,21.40
2018-03-14T14:05:22.554Z,20.92
2018-03-14T14:07:50.138Z,21.73
2018-03-14T14:10:17.716Z,22.96
2018-03-14T14:12:45.458Z,22.59
2018-03-14T14:15:13.018Z,22.62
2018-03-14T14:17:40.654Z,23.08
2018-03-14T14:20:08.439Z,23.54
2018-03-14T14:22:36.252Z,23.21
2018-03-14T14:25:04.201Z,23.13
2018-03-14T14:27:31.766Z,23.52
2018-03-14T14:29:59.402Z,23.47
2018-03-14T14:32:27.223Z,23.10
2018-03-14T14:34:55.041Z,22.62
2018-03-14T14:37:22.631Z,22.59
2018-03-14T14:39:50.202Z,23.33
2018-03-14T14:42:17.792Z,24.05
2018-03-14T14:44:45.366Z,23.65
2018-03-14T14:47:13.135Z,23.16
2018-03-14T14:49:40.758Z,22.97
2018-03-14T14:52:08.320Z,22.92
2018-03-14T14:54:35.890Z,23.53
2018-03-14T14:57:03.466Z,23.84
2018-03-14T14:59:31.031Z,24.10
2018-03-14T15:01:58.618Z,24.45
2018-03-14T15:04:26.178Z,24.67
2018-03-14T15:06:53.761Z,23.43
2018-03-14T15:09:21.493Z,22.29
2018-03-14T15:11:49.316Z,21.07
2018-03-14T15:14:16.862Z,20.32
2018-03-14T15:16:44.721Z,20.45
2018-03-14T15:19:12.290Z,21.14
2018-03-14T15:21:39.875Z,21.86
2018-03-14T15:24:07.446Z,22.55
2018-03-14T15:26:35.110Z,22.74
2018-03-14T15:29:02.716Z,23.06
2018-03-14T15:31:30.291Z,23.07
2018-03-14T15:33:57.855Z,23.22
2018-03-14T15:36:25.446Z,23.18
2018-03-14T15:38:53.099Z,22.08
2018-03-14T15:41:20.933Z,21.18
2018-03-14T15:43:48.506Z,20.39
2018-03-14T15:46:16.363Z,19.28
2018-03-14T15:48:43.984Z,18.61
2018-03-14T15:51:11.552Z,18.00
2018-03-14T15:53:39.319Z,17.55
2018-03-14T15:56:06.910Z,17.12
2018-03-14T15:58:34.470Z,16.76
2018-03-14T16:01:02.047Z,16.45
2018-03-14T16:03:29.610Z,16.15
2018-03-14T16:05:57.231Z,15.87
2018-03-14T16:08:24.814Z,15.63
2018-03-14T16:10:52.366Z,15.40
2018-03-14T16:13:20.064Z,15.22
2018-03-14T16:15:47.640Z,15.01
2018-03-14T16:18:15.230Z,14.90
2018-03-14T16:20:43.017Z,14.75
2018-03-14T16:23:10.618Z,14.61
2018-03-14T16:25:38.241Z,14.49
2018-03-14T16:28:05.873Z,14.32
2018-03-14T16:30:33.687Z,14.12
2018-03-14T16:33:01.247Z,13.99
2018-03-14T16:35:29.007Z,13.91
2018-03-14T16:37:56.575Z,13.82
2018-03-14T16:40:24.172Z,13.74
2018-03-14T16:42:51.867Z,13.62
2018-03-14T16:45:19.694Z,13.56
2018-03-14T16:47:47.304Z,13.46
2018-03-14T16:50:14.889Z,13.39
2018-03-14T16:52:42.651Z,13.28
2018-03-14T16:55:10.283Z,13.16
2018-03-14T16:57:37.847Z,13.14
2018-03-14T17:00:05.510Z,13.05
2018-03-14T17:02:33.107Z,12.99
2018-03-14T17:05:00.677Z,12.92
2018-03-14T17:07:28.259Z,12.88
2018-03-14T17:09:55.863Z,12.84
2018-03-14T17:12:23.592Z,12.73
2018-03-14T17:14:51.182Z,12.65
2018-03-14T17:17:18.880Z,12.58
2018-03-14T17:19:46.532Z,12.53
2018-03-14T17:22:14.161Z,12.47
2018-03-14T17:24:42.017Z,12.39
2018-03-14T17:27:09.624Z,12.31
2018-03-14T17:29:37.313Z,12.28
2018-03-14T17:32:04.961Z,12.20
2018-03-14T17:34:32.540Z,12.18
2018-03-14T17:37:00.115Z,12.21
2018-03-14T17:39:27.787Z,12.18
2018-03-14T17:41:55.361Z,12.13
2018-03-14T17:44:23.163Z,12.07
2018-03-14T17:46:50.949Z,12.08
2018-03-14T17:49:18.766Z,12.11
2018-03-14T17:51:46.400Z,12.12
2018-03-14T17:54:14.200Z,12.11
2018-03-14T17:56:42.011Z,12.07
2018-03-14T17:59:09.661Z,12.05
2018-03-14T18:01:37.447Z,12.04
2018-03-14T18:04:05.253Z,11.98
2018-03-14T18:06:32.890Z,12.00
2018-03-14T18:09:00.710Z,11.99
2018-03-14T18:11:28.433Z,12.01
2018-03-14T18:13:56.062Z,12.08
2018-03-14T18:16:23.858Z,12.18
2018-03-14T18:18:51.455Z,12.20
2018-03-14T18:21:19.060Z,12.16
2018-03-14T18:23:46.919Z,12.11
2018-03-14T18:26:14.739Z,12.11
2018-03-14T18:28:42.559Z,12.07
2018-03-14T18:31:10.368Z,11.96
2018-03-14T18:33:37.986Z,11.86
2018-03-14T18:36:05.712Z,11.85
2018-03-14T18:38:33.633Z,11.85
2018-03-14T18:41:01.457Z,11.89
2018-03-14T18:43:29.269Z,11.79
2018-03-14T18:45:57.002Z,11.69
2018-03-14T18:48:24.806Z,11.62
2018-03-14T18:50:52.625Z,11.60
2018-03-14T18:53:21.140Z,11.46
2018-03-14T18:55:48.727Z,11.32
2018-03-14T18:58:16.376Z,11.30
2018-03-14T19:00:44.199Z,11.23
2018-03-14T19:03:12.017Z,11.23
2018-03-14T19:05:39.828Z,11.12
2018-03-14T19:08:07.443Z,11.00
2018-03-14T19:10:35.140Z,10.95
2018-03-14T19:13:02.891Z,10.95
2018-03-14T19:15:30.709Z,10.96
2018-03-14T19:17:58.419Z,10.96
2018-03-14T19:20:26.006Z,10.95
2018-03-14T19:22:53.594Z,10.94
2018-03-14T19:25:21.192Z,10.93
2018-03-14T19:27:48.892Z,10.93
2018-03-14T19:30:16.608Z,10.94
2018-03-14T19:32:44.220Z,10.95
2018-03-14T19:35:11.810Z,11.02
2018-03-14T19:37:39.382Z,11.07
2018-03-14T19:40:07.192Z,11.06
2018-03-14T19:42:34.803Z,11.01
2018-03-14T19:45:02.724Z,10.99
2018-03-14T19:47:30.303Z,11.01
2018-03-14T19:49:57.942Z,11.00
2018-03-14T19:52:25.568Z,10.87
2018-03-14T19:54:53.400Z,10.85
2018-03-14T19:57:21.008Z,10.79
2018-03-14T19:59:48.613Z,10.72
2018-03-14T20:02:16.338Z,10.65
2018-03-14T20:04:44.071Z,10.58
2018-03-14T20:07:11.659Z,10.50
2018-03-14T20:09:39.396Z,10.47
2018-03-14T20:12:06.982Z,10.38
2018-03-14T20:14:34.592Z,10.45
2018-03-14T20:17:02.474Z,10.40
2018-03-14T20:19:30.165Z,10.33
2018-03-14T20:21:57.789Z,10.32
2018-03-14T20:24:25.647Z,10.27
2018-03-14T20:26:53.228Z,10.28
2018-03-14T20:29:20.943Z,10.28
2018-03-14T20:31:48.503Z,10.30
2018-03-14T20:34:16.289Z,10.32
2018-03-14T20:36:43.900Z,10.23
2018-03-14T20:39:11.647Z,10.21
2018-03-14T20:41:39.443Z,10.24
2018-03-14T20:44:07.145Z,10.25
2018-03-14T20:46:34.731Z,10.22
2018-03-14T20:49:02.391Z,10.20
2018-03-14T20:51:29.966Z,10.19
2018-03-14T20:53:57.736Z,10.12
2018-03-14T20:56:25.320Z,10.10
2018-03-14T20:58:52.936Z,10.09
2018-03-14T21:01:20.502Z,10.08
2018-03-14T21:03:48.309Z,9.98
2018-03-14T21:06:15.866Z,9.93
2018-03-14T21:08:43.642Z,9.86
2018-03-14T21:11:11.459Z,9.81
2018-03-14T21:13:39.077Z,9.74
2018-03-14T21:16:06.690Z,9.66
2018-03-14T21:18:34.246Z,9.55
2018-03-14T21:21:01.921Z,9.52
2018-03-14T21:23:29.498Z,9.47
2018-03-14T21:25:57.062Z,9.39
2018-03-14T21:28:24.885Z,9.33
2018-03-14T21:30:52.704Z,9.20
2018-03-14T21:33:20.307Z,9.14
2018-03-14T21:35:47.948Z,9.07
2018-03-14T21:38:15.659Z,9.03
2018-03-14T21:40:43.226Z,9.05
2018-03-14T21:43:10.875Z,8.96
2018-03-14T21:45:38.442Z,8.99
2018-03-14T21:48:06.204Z,8.94
2018-03-14T21:50:33.761Z,8.95
2018-03-14T21:53:01.401Z,8.94
2018-03-14T21:55:38.887Z,8.91
2018-03-14T21:58:06.639Z,8.78
2018-03-14T22:00:34.244Z,8.75
2018-03-14T22:03:02.077Z,8.68
2018-03-14T22:05:29.646Z,8.58
2018-03-14T22:07:57.214Z,8.56
2018-03-14T22:10:25.029Z,8.49
2018-03-14T22:12:52.856Z,8.44
2018-03-14T22:15:20.422Z,8.47
2018-03-14T22:17:48.184Z,8.55
2018-03-14T22:20:15.804Z,8.55
2018-03-14T22:22:43.378Z,8.55
2018-03-14T22:25:11.238Z,8.59
2018-03-14T22:27:38.797Z,8.63
2018-03-14T22:30:06.533Z,8.67
2018-03-14T22:32:34.248Z,8.53
2018-03-14T22:35:01.848Z,8.48
2018-03-14T22:37:29.628Z,8.40
2018-03-14T22:39:57.445Z,8.43
2018-03-14T22:42:25.010Z,8.49
2018-03-14T22:44:52.695Z,8.50
2018-03-14T22:47:20.291Z,8.57
2018-03-14T22:49:47.854Z,8.63
2018-03-14T22:52:15.465Z,8.68
2018-03-14T22:54:43.098Z,8.72
2018-03-14T22:57:10.711Z,8.76
2018-03-14T22:59:38.280Z,8.78
2018-03-14T23:02:05.874Z,8.81
2018-03-14T23:04:33.460Z,8.81
2018-03-14T23:07:01.022Z,8.83
2018-03-14T23:09:28.612Z,8.88
2018-03-14T23:11:56.235Z,8.88
2018-03-14T23:14:23.995Z,8.90
2018-03-14T23:16:51.559Z,8.93
2018-03-14T23:19:19.332Z,8.99
2018-03-14T23:21:46.904Z,9.01
2018-03-14T23:24:14.475Z,9.08
2018-03-14T23:26:42.129Z,9.11
2018-03-14T23:29:09.910Z,9.10
2018-03-14T23:31:37.480Z,9.13
2018-03-14T23:34:05.208Z,9.14
2018-03-14T23:36:32.784Z,9.13
2018-03-14T23:39:00.578Z,9.18
2018-03-14T23:41:28.166Z,9.16
2018-03-14T23:43:55.803Z,9.11
2018-03-14T23:46:23.409Z,9.07
2018-03-14T23:48:50.970Z,9.05
2018-03-14T23:51:18.531Z,9.03
2018-03-14T23:53:46.100Z,9.02
2018-03-14T23:56:13.659Z,8.95
2018-03-14T23:58:41.418Z,8.93
